createdAt,value
2022-11-20T00:01:21.567Z,99.90
2022-11-20T00:03:50.233Z,99.90
2022-11-20T00:06:19.837Z,99.90
2022-11-20T00:08:48.326Z,99.90
2022-11-20T00:11:18.366Z,99.90
2022-11-20T00:13:49.098Z,99.90
2022-11-20T00:16:19.227Z,99.90
2022-11-20T00:18:47.374Z,99.90
2022-11-20T00:21:16.725Z,99.90
2022-11-20T00:23:45.194Z,99.90
2022-11-20T00:26:16.226Z,99.90
2022-11-20T00:28:45.643Z,99.90
2022-11-20T00:31:16.745Z,99.90
2022-11-20T00:33:46.409Z,99.90
2022-11-20T00:36:16.301Z,99.90
2022-11-20T00:38:45.262Z,99.90
2022-11-20T00:41:17.782Z,99.90
2022-11-20T00:43:46.051Z,99.90
2022-11-20T00:46:17.344Z,99.90
2022-11-20T00:48:46.084Z,99.90
2022-11-20T00:51:15.929Z,99.90
2022-11-20T00:53:44.254Z,99.90
2022-11-20T00:56:14.590Z,99.90
2022-11-20T00:58:44.243Z,99.90
2022-11-20T01:01:14.197Z,99.90
2022-11-20T01:03:45.558Z,99.90
2022-11-20T01:06:16.239Z,99.90
2022-11-20T01:08:45.380Z,99.90
2022-11-20T01:11:15.504Z,99.90
2022-11-20T01:13:44.538Z,99.90
2022-11-20T01:16:18.606Z,99.90
2022-11-20T01:18:50.201Z,99.90
2022-11-20T01:21:20.497Z,99.90
2022-11-20T01:23:49.920Z,99.90
2022-11-20T01:26:20.376Z,99.90
2022-11-20T01:28:48.865Z,99.90
2022-11-20T01:31:18.775Z,99.90
2022-11-20T01:33:51.346Z,99.90
2022-11-20T01:36:20.801Z,99.90
2022-11-20T01:38:49.239Z,99.90
2022-11-20T01:41:31.695Z,99.90
2022-11-20T01:43:59.753Z,99.90
2022-11-20T01:46:27.797Z,99.90
2022-11-20T01:49:03.405Z,99.90
2022-11-20T01:51:36.934Z,99.90
2022-11-20T01:54:09.687Z,99.90
2022-11-20T01:56:40.975Z,99.90
2022-11-20T01:59:11.842Z,99.90
2022-11-20T02:01:40.573Z,99.90
2022-11-20T02:04:12.015Z,99.90
2022-11-20T02:06:46.334Z,99.90
2022-11-20T02:09:14.673Z,99.90
2022-11-20T02:11:42.989Z,99.90
2022-11-20T02:14:10.602Z,99.90
2022-11-20T02:16:42.401Z,99.90
2022-11-20T02:19:18.652Z,99.90
2022-11-20T02:21:53.133Z,99.90
2022-11-20T02:24:24.631Z,99.90
2022-11-20T02:26:55.880Z,99.90
2022-11-20T02:29:28.772Z,99.90
2022-11-20T02:31:58.916Z,99.90
2022-11-20T02:34:27.032Z,99.90
2022-11-20T02:36:55.547Z,99.90
2022-11-20T02:39:28.358Z,99.90
2022-11-20T02:41:57.796Z,99.90
2022-11-20T02:44:25.705Z,99.90
2022-11-20T02:46:53.735Z,99.90
2022-11-20T02:49:22.114Z,99.90
2022-11-20T02:51:50.212Z,99.90
2022-11-20T02:54:18.406Z,99.90
2022-11-20T02:56:47.803Z,99.90
2022-11-20T02:59:15.798Z,99.90
2022-11-20T03:01:43.798Z,99.90
2022-11-20T03:04:11.897Z,99.90
2022-11-20T03:06:39.956Z,99.90
2022-11-20T03:09:08.412Z,99.90
2022-11-20T03:11:36.483Z,99.90
2022-11-20T03:14:06.999Z,99.90
2022-11-20T03:16:35.200Z,99.90
2022-11-20T03:19:03.352Z,99.90
2022-11-20T03:21:37.479Z,99.90
2022-11-20T03:24:06.227Z,99.90
2022-11-20T03:26:34.249Z,99.90
2022-11-20T03:29:04.756Z,99.90
2022-11-20T03:31:36.137Z,99.90
2022-11-20T03:34:04.897Z,99.90
2022-11-20T03:36:33.571Z,99.90
2022-11-20T03:39:01.924Z,99.90
2022-11-20T03:41:31.651Z,99.90
2022-11-20T03:44:02.669Z,99.90
2022-11-20T03:46:31.517Z,99.90
2022-11-20T03:49:01.417Z,99.90
2022-11-20T03:51:31.696Z,99.90
2022-11-20T03:54:01.747Z,99.90
2022-11-20T03:56:31.476Z,99.90
2022-11-20T03:58:59.773Z,99.90
2022-11-20T04:01:29.482Z,99.90
2022-11-20T04:03:58.874Z,99.90
2022-11-20T04:06:30.600Z,99.90
2022-11-20T04:08:59.756Z,99.90
2022-11-20T04:11:29.523Z,99.90
2022-11-20T04:13:59.313Z,99.90
2022-11-20T04:16:28.657Z,99.90
2022-11-20T04:18:57.769Z,99.90
2022-11-20T04:21:26.434Z,99.90
2022-11-20T04:23:56.942Z,99.90
2022-11-20T04:26:26.875Z,99.90
2022-11-20T04:28:54.978Z,99.90
2022-11-20T04:31:24.496Z,99.90
2022-11-20T04:33:52.535Z,99.90
2022-11-20T04:36:22.404Z,99.90
2022-11-20T04:38:56.726Z,99.90
2022-11-20T04:41:28.039Z,99.90
2022-11-20T04:44:00.294Z,99.90
2022-11-20T04:46:30.101Z,99.90
2022-11-20T04:48:58.389Z,99.90
2022-11-20T04:51:26.509Z,99.90
2022-11-20T04:53:54.528Z,99.90
2022-11-20T04:56:22.613Z,99.90
2022-11-20T04:58:52.456Z,99.90
2022-11-20T05:01:22.431Z,99.90
2022-11-20T05:03:50.886Z,99.90
2022-11-20T05:06:20.488Z,99.90
2022-11-20T05:08:48.595Z,99.90
2022-11-20T05:11:18.545Z,99.90
2022-11-20T05:13:46.757Z,99.90
2022-11-20T05:16:18.210Z,99.90
2022-11-20T05:18:47.121Z,99.90
2022-11-20T05:21:15.881Z,99.90
2022-11-20T05:23:44.618Z,99.90
2022-11-20T05:26:16.279Z,99.90
2022-11-20T05:28:44.366Z,99.90
2022-11-20T05:31:14.341Z,99.90
2022-11-20T05:33:45.453Z,99.90
2022-11-20T05:36:15.375Z,99.90
2022-11-20T05:38:44.501Z,99.90
2022-11-20T05:41:15.230Z,99.90
2022-11-20T05:43:44.809Z,99.90
2022-11-20T05:46:15.139Z,99.90
2022-11-20T05:48:46.116Z,99.90
2022-11-20T05:51:16.859Z,99.90
2022-11-20T05:53:48.546Z,99.90
2022-11-20T05:56:19.013Z,99.90
2022-11-20T05:58:47.632Z,99.90
2022-11-20T06:01:17.925Z,99.90
2022-11-20T06:03:48.585Z,99.90
2022-11-20T06:06:17.671Z,99.90
2022-11-20T06:08:46.193Z,99.90
2022-11-20T06:11:15.560Z,99.90
2022-11-20T06:13:44.313Z,99.90
2022-11-20T06:16:13.123Z,99.90
2022-11-20T06:18:41.430Z,99.90
2022-11-20T06:21:12.375Z,99.90
2022-11-20T06:23:41.005Z,99.90
2022-11-20T06:26:10.563Z,99.90
2022-11-20T06:28:38.623Z,99.90
2022-11-20T06:31:08.173Z,99.90
2022-11-20T06:33:36.446Z,99.90
2022-11-20T06:36:10.349Z,99.90
2022-11-20T06:38:40.957Z,99.90
2022-11-20T06:41:12.482Z,99.90
2022-11-20T06:43:40.465Z,99.90
2022-11-20T06:46:08.795Z,99.90
2022-11-20T06:48:36.710Z,99.90
2022-11-20T06:51:05.464Z,99.90
2022-11-20T06:53:33.968Z,99.90
2022-11-20T06:56:03.434Z,99.90
2022-11-20T06:58:33.342Z,99.90
2022-11-20T07:01:02.049Z,99.90
2022-11-20T07:03:30.357Z,99.90
2022-11-20T07:05:59.241Z,99.90
2022-11-20T07:08:27.374Z,99.90
2022-11-20T07:10:58.917Z,99.90
2022-11-20T07:13:28.537Z,99.90
2022-11-20T07:15:57.211Z,99.90
2022-11-20T07:18:27.692Z,99.90
2022-11-20T07:20:55.745Z,99.90
2022-11-20T07:23:23.721Z,99.90
2022-11-20T07:25:51.659Z,99.90
2022-11-20T07:28:19.743Z,99.90
2022-11-20T07:30:53.369Z,99.90
2022-11-20T07:33:21.728Z,99.90
2022-11-20T07:35:49.726Z,99.90
2022-11-20T07:38:17.801Z,99.90
2022-11-20T07:40:45.920Z,99.90
2022-11-20T07:43:13.960Z,99.90
2022-11-20T07:45:43.944Z,99.90
2022-11-20T07:48:13.259Z,99.90
2022-11-20T07:50:41.288Z,99.90
2022-11-20T07:53:09.292Z,99.90
2022-11-20T07:55:37.328Z,99.90
2022-11-20T07:58:05.251Z,99.90
2022-11-20T08:00:33.392Z,99.90
2022-11-20T08:03:01.514Z,99.90
2022-11-20T08:05:30.894Z,99.90
2022-11-20T08:07:58.906Z,99.90
2022-11-20T08:10:27.159Z,99.90
2022-11-20T08:13:13.040Z,99.90
2022-11-20T08:15:41.947Z,99.90
2022-11-20T08:21:04.275Z,99.90
2022-11-20T08:23:32.259Z,99.90
2022-11-20T08:26:00.249Z,99.90
2022-11-20T08:28:28.291Z,99.90
2022-11-20T08:31:01.101Z,99.90
2022-11-20T08:33:29.843Z,99.90
2022-11-20T08:36:02.369Z,99.90
2022-11-20T08:38:30.558Z,99.90
2022-11-20T08:41:16.787Z,99.90
2022-11-20T08:43:45.003Z,99.90
2022-11-20T08:46:13.362Z,99.90
2022-11-20T08:48:41.462Z,99.90
2022-11-20T08:51:11.291Z,99.90
2022-11-20T08:53:39.502Z,99.90
2022-11-20T08:56:08.133Z,99.90
2022-11-20T08:59:01.889Z,99.90
2022-11-20T09:01:25.433Z,99.90
2022-11-20T09:03:54.040Z,99.90
2022-11-20T09:06:23.393Z,99.90
2022-11-20T09:08:54.487Z,99.90
2022-11-20T09:11:22.827Z,99.90
2022-11-20T09:13:51.226Z,99.90
2022-11-20T09:16:19.428Z,99.90
2022-11-20T09:18:53.964Z,99.90
2022-11-20T09:21:32.083Z,99.90
2022-11-20T09:24:00.086Z,99.90
2022-11-20T09:26:28.525Z,99.90
2022-11-20T09:28:58.290Z,99.90
2022-11-20T09:31:27.512Z,99.90
2022-11-20T09:33:56.073Z,99.90
2022-11-20T09:36:24.086Z,99.90
2022-11-20T09:38:53.693Z,99.90
2022-11-20T09:41:46.836Z,99.90
2022-11-20T09:44:34.212Z,99.90
2022-11-20T09:47:07.516Z,99.90
2022-11-20T09:49:44.410Z,99.90
2022-11-20T09:52:24.341Z,99.90
2022-11-20T09:54:54.533Z,99.90
2022-11-20T09:57:25.423Z,99.90
2022-11-20T09:59:58.317Z,99.90
2022-11-20T10:02:31.440Z,99.90
2022-11-20T10:05:03.431Z,99.90
2022-11-20T10:07:38.863Z,99.90
2022-11-20T10:10:18.062Z,99.90
2022-11-20T10:13:01.855Z,99.90
2022-11-20T10:15:38.340Z,99.90
2022-11-20T10:18:18.930Z,99.90
2022-11-20T10:20:56.089Z,99.90
2022-11-20T10:23:52.034Z,99.90
2022-11-20T10:26:27.992Z,99.90
2022-11-20T10:29:18.359Z,99.90
2022-11-20T10:31:53.216Z,99.90
2022-11-20T10:34:25.441Z,99.90
2022-11-20T10:36:58.119Z,99.90
2022-11-20T10:39:35.262Z,99.90
2022-11-20T10:42:07.075Z,99.90
2022-11-20T10:44:56.692Z,99.90
2022-11-20T10:47:25.263Z,99.90
2022-11-20T10:49:56.360Z,99.90
2022-11-20T10:52:34.744Z,99.90
2022-11-20T10:55:14.011Z,99.90
2022-11-20T10:57:56.389Z,99.90
2022-11-20T11:00:24.675Z,99.90
2022-11-20T11:02:54.449Z,99.90
2022-11-20T11:05:39.693Z,99.90
2022-11-20T11:08:14.403Z,99.90
2022-11-20T11:10:50.079Z,99.90
2022-11-20T11:13:23.834Z,99.90
2022-11-20T11:15:52.646Z,99.90
2022-11-20T11:18:29.113Z,99.90
2022-11-20T11:20:58.615Z,99.90
2022-11-20T11:23:35.356Z,99.90
2022-11-20T11:26:05.645Z,99.90
2022-11-20T11:28:35.609Z,99.90
2022-11-20T11:31:03.837Z,99.90
2022-11-20T11:33:34.652Z,99.90
2022-11-20T11:36:05.350Z,99.90
2022-11-20T11:38:38.569Z,99.90
2022-11-20T11:41:09.877Z,99.90
2022-11-20T11:43:57.410Z,99.90
2022-11-20T11:46:33.502Z,99.90
2022-11-20T11:49:03.424Z,99.90
2022-11-20T11:51:40.332Z,99.90
2022-11-20T11:54:18.421Z,99.90
2022-11-20T11:56:47.767Z,99.90
2022-11-20T11:59:25.492Z,99.90
2022-11-20T12:01:59.692Z,99.90
2022-11-20T12:04:42.397Z,99.90
2022-11-20T12:07:39.272Z,99.90
2022-11-20T12:10:04.019Z,99.90
2022-11-20T12:12:37.727Z,99.90
2022-11-20T12:15:13.516Z,99.90
2022-11-20T12:17:41.667Z,99.90
2022-11-20T12:20:15.201Z,99.90
2022-11-20T12:22:52.606Z,99.90
2022-11-20T12:25:24.976Z,99.90
2022-11-20T12:28:25.717Z,99.90
2022-11-20T12:31:11.876Z,99.90
2022-11-20T12:34:04.878Z,99.90
2022-11-20T12:36:42.858Z,99.90
2022-11-20T12:39:37.454Z,99.90
2022-11-20T12:42:58.764Z,99.90
2022-11-20T12:45:56.261Z,99.90
2022-11-20T12:48:46.426Z,99.90
2022-11-20T12:51:30.801Z,99.90
2022-11-20T12:54:19.282Z,99.90
2022-11-20T12:56:54.008Z,99.90
2022-11-20T12:59:51.276Z,99.90
2022-11-20T13:02:28.457Z,99.90
2022-11-20T13:05:23.082Z,99.90
2022-11-20T13:07:55.621Z,98.90
2022-11-20T13:10:33.643Z,98.90
2022-11-20T13:13:09.553Z,99.00
2022-11-20T13:15:47.003Z,98.50
2022-11-20T13:18:15.704Z,98.70
2022-11-20T13:20:47.628Z,98.30
2022-11-20T13:23:26.796Z,98.10
2022-11-20T13:26:14.996Z,97.40
2022-11-20T13:28:43.261Z,97.60
2022-11-20T13:31:26.264Z,96.80
2022-11-20T13:33:57.119Z,96.40
2022-11-20T13:36:29.507Z,96.60
2022-11-20T13:38:58.444Z,96.70
2022-11-20T13:41:32.317Z,96.90
2022-11-20T13:44:09.007Z,96.80
2022-11-20T13:46:39.553Z,96.50
2022-11-20T13:49:13.129Z,96.70
2022-11-20T13:51:48.274Z,96.60
2022-11-20T13:54:45.660Z,96.70
2022-11-20T13:57:39.409Z,96.80
2022-11-20T14:00:14.037Z,96.50
2022-11-20T14:02:43.458Z,96.80
2022-11-20T14:05:20.823Z,96.70
2022-11-20T14:07:51.374Z,96.40
2022-11-20T14:10:29.945Z,96.10
2022-11-20T14:13:00.141Z,95.70
2022-11-20T14:15:30.958Z,95.20
2022-11-20T14:17:59.623Z,95.20
2022-11-20T14:20:30.528Z,95.30
2022-11-20T14:22:59.977Z,95.10
2022-11-20T14:25:28.905Z,95.40
2022-11-20T14:27:59.417Z,95.60
2022-11-20T14:30:29.850Z,95.70
2022-11-20T14:33:03.999Z,95.50
2022-11-20T14:35:36.278Z,95.90
2022-11-20T14:38:06.098Z,95.80
2022-11-20T14:40:37.085Z,96.00
2022-11-20T14:43:20.141Z,96.10
2022-11-20T14:45:56.857Z,95.80
2022-11-20T14:48:30.529Z,96.00
2022-11-20T14:50:58.798Z,96.10
2022-11-20T14:53:28.225Z,95.90
2022-11-20T14:55:59.091Z,95.80
2022-11-20T14:58:29.194Z,95.70
2022-11-20T15:00:59.308Z,95.80
2022-11-20T15:03:34.489Z,96.00
2022-11-20T15:06:02.994Z,96.00
2022-11-20T15:08:32.437Z,95.70
2022-11-20T15:11:01.423Z,96.30
2022-11-20T15:13:33.000Z,96.30
2022-11-20T15:16:02.733Z,96.20
2022-11-20T15:18:33.737Z,96.30
2022-11-20T15:21:05.566Z,96.40
2022-11-20T15:23:34.933Z,95.90
2022-11-20T15:26:03.340Z,96.00
2022-11-20T15:28:40.083Z,96.00
2022-11-20T15:31:11.608Z,95.60
2022-11-20T15:33:39.584Z,95.30
2022-11-20T15:36:07.786Z,95.20
2022-11-20T15:38:37.387Z,95.30
2022-11-20T15:41:05.682Z,95.30
2022-11-20T15:43:33.788Z,95.30
2022-11-20T15:46:04.234Z,94.90
2022-11-20T15:48:36.920Z,94.90
2022-11-20T15:51:13.059Z,94.40
2022-11-20T15:53:43.783Z,94.60
2022-11-20T15:56:14.320Z,94.90
2022-11-20T15:58:43.080Z,94.50
2022-11-20T16:01:13.729Z,94.30
2022-11-20T16:03:42.281Z,94.80
2022-11-20T16:06:10.354Z,94.50
2022-11-20T16:08:38.424Z,94.80
2022-11-20T16:11:07.784Z,94.90
2022-11-20T16:13:54.701Z,94.80
2022-11-20T16:16:25.091Z,94.90
2022-11-20T16:18:53.207Z,94.70
2022-11-20T16:24:16.217Z,95.10
2022-11-20T16:26:45.651Z,94.90
2022-11-20T16:29:13.705Z,94.80
2022-11-20T16:31:41.766Z,94.90
2022-11-20T16:34:12.588Z,94.60
2022-11-20T16:36:51.686Z,94.30
2022-11-20T16:39:23.551Z,94.30
2022-11-20T16:41:53.394Z,94.60
2022-11-20T16:44:22.045Z,94.60
2022-11-20T16:46:50.340Z,94.80
2022-11-20T16:49:18.413Z,94.40
2022-11-20T16:51:46.924Z,94.60
2022-11-20T16:54:20.922Z,94.70
2022-11-20T16:56:51.939Z,94.50
2022-11-20T16:59:21.565Z,94.70
2022-11-20T17:01:49.985Z,95.00
2022-11-20T17:04:18.802Z,94.60
2022-11-20T17:06:47.777Z,95.10
2022-11-20T17:09:15.851Z,95.20
2022-11-20T17:11:43.904Z,95.10
2022-11-20T17:14:12.862Z,95.20
2022-11-20T17:16:43.001Z,95.30
2022-11-20T17:19:11.188Z,95.50
2022-11-20T17:21:40.347Z,94.90
2022-11-20T17:24:10.468Z,95.10
2022-11-20T17:26:40.391Z,95.00
2022-11-20T17:29:10.528Z,95.10
2022-11-20T17:31:39.570Z,95.40
2022-11-20T17:34:11.968Z,95.70
2022-11-20T17:36:45.190Z,95.20
2022-11-20T17:39:14.853Z,95.50
2022-11-20T17:41:43.059Z,95.50
2022-11-20T17:44:12.636Z,95.60
2022-11-20T17:46:41.023Z,95.70
2022-11-20T17:49:10.623Z,95.80
2022-11-20T17:51:38.688Z,96.00
2022-11-20T17:54:08.300Z,95.90
2022-11-20T17:56:54.857Z,95.50
2022-11-20T17:59:23.389Z,95.60
2022-11-20T18:01:51.488Z,95.80
2022-11-20T18:04:21.760Z,95.90
2022-11-20T18:06:50.282Z,96.10
2022-11-20T18:09:18.528Z,96.30
2022-11-20T18:11:46.631Z,96.40
2022-11-20T18:14:36.316Z,96.00
2022-11-20T18:17:06.828Z,96.00
2022-11-20T18:19:44.848Z,95.90
2022-11-20T18:22:21.111Z,96.10
2022-11-20T18:24:49.107Z,96.10
2022-11-20T18:27:19.797Z,96.20
2022-11-20T18:29:51.619Z,96.20
2022-11-20T18:32:20.432Z,96.10
2022-11-20T18:34:49.886Z,96.30
2022-11-20T18:37:18.073Z,96.40
2022-11-20T18:39:46.237Z,96.70
2022-11-20T18:42:33.161Z,96.90
2022-11-20T18:45:04.701Z,96.70
2022-11-20T18:47:37.485Z,96.80
2022-11-20T18:50:09.164Z,96.80
2022-11-20T18:52:41.696Z,97.00
2022-11-20T18:55:18.006Z,97.20
2022-11-20T18:57:46.060Z,97.30
2022-11-20T19:00:15.013Z,97.20
2022-11-20T19:02:43.523Z,97.00
2022-11-20T19:05:15.324Z,97.00
2022-11-20T19:07:43.879Z,96.90
2022-11-20T19:10:12.106Z,96.80
2022-11-20T19:12:40.232Z,97.10
2022-11-20T19:15:08.984Z,97.30
2022-11-20T19:17:38.960Z,97.40
2022-11-20T19:20:08.193Z,97.50
2022-11-20T19:22:37.645Z,97.60
2022-11-20T19:25:06.577Z,97.60
2022-11-20T19:27:34.977Z,97.70
2022-11-20T19:30:04.008Z,97.80
2022-11-20T19:32:32.612Z,97.80
2022-11-20T19:35:00.960Z,97.80
2022-11-20T19:37:29.049Z,97.70
2022-11-20T19:39:59.661Z,97.70
2022-11-20T19:42:30.132Z,97.70
2022-11-20T19:44:59.122Z,97.80
2022-11-20T19:47:46.080Z,97.90
2022-11-20T19:50:16.086Z,97.80
2022-11-20T19:52:44.018Z,97.90
2022-11-20T19:55:13.444Z,98.00
2022-11-20T19:57:41.499Z,98.30
2022-11-20T20:00:10.919Z,98.10
2022-11-20T20:02:38.897Z,98.10
2022-11-20T20:05:07.940Z,98.20
2022-11-20T20:07:36.164Z,98.20
2022-11-20T20:10:04.405Z,98.40
2022-11-20T20:12:33.886Z,98.50
2022-11-20T20:15:02.235Z,98.60
2022-11-20T20:17:30.303Z,98.60
2022-11-20T20:19:58.368Z,98.50
2022-11-20T20:22:26.508Z,98.60
2022-11-20T20:24:54.496Z,98.60
2022-11-20T20:27:22.687Z,98.60
2022-11-20T20:29:52.089Z,98.70
2022-11-20T20:32:20.267Z,98.70
2022-11-20T20:34:48.314Z,98.80
2022-11-20T20:37:16.346Z,98.80
2022-11-20T20:39:44.521Z,98.80
2022-11-20T20:42:12.551Z,98.80
2022-11-20T20:44:57.947Z,98.80
2022-11-20T20:47:31.235Z,98.80
2022-11-20T20:49:59.502Z,98.90
2022-11-20T20:52:27.821Z,99.20
2022-11-20T20:54:56.282Z,99.00
2022-11-20T20:57:25.131Z,99.10
2022-11-20T20:59:53.532Z,99.10
2022-11-20T21:02:21.581Z,99.20
2022-11-20T21:04:51.449Z,99.20
2022-11-20T21:07:20.016Z,99.20
2022-11-20T21:09:48.094Z,99.20
2022-11-20T21:12:16.205Z,99.30
2022-11-20T21:14:44.392Z,99.30
2022-11-20T21:17:15.309Z,99.20
2022-11-20T21:19:43.602Z,99.10
2022-11-20T21:22:11.956Z,99.00
2022-11-20T21:24:39.950Z,98.90
2022-11-20T21:27:08.122Z,98.90
2022-11-20T21:29:36.015Z,98.90
2022-11-20T21:32:04.030Z,98.90
2022-11-20T21:34:32.198Z,99.00
2022-11-20T21:37:00.358Z,99.00
2022-11-20T21:39:30.523Z,99.00
2022-11-20T21:41:58.477Z,99.10
2022-11-20T21:44:31.340Z,99.10
2022-11-20T21:47:09.042Z,99.10
2022-11-20T21:49:37.002Z,99.00
2022-11-20T21:52:05.205Z,99.00
2022-11-20T21:54:35.757Z,99.00
2022-11-20T21:57:04.731Z,98.90
2022-11-20T21:59:32.718Z,98.90
2022-11-20T22:02:00.827Z,98.90
2022-11-20T22:04:29.252Z,98.90
2022-11-20T22:06:57.343Z,98.90
2022-11-20T22:09:25.622Z,98.90
2022-11-20T22:11:55.078Z,98.80
2022-11-20T22:14:22.567Z,98.90
2022-11-20T22:16:52.302Z,98.80
2022-11-20T22:19:21.429Z,98.80
2022-11-20T22:21:50.487Z,98.80
2022-11-20T22:24:20.745Z,98.80
2022-11-20T22:26:49.431Z,98.80
2022-11-20T22:29:20.755Z,98.80
2022-11-20T22:31:48.954Z,98.80
2022-11-20T22:34:16.952Z,98.80
2022-11-20T22:36:45.575Z,98.90
2022-11-20T22:39:13.587Z,98.90
2022-11-20T22:41:41.620Z,99.00
2022-11-20T22:44:10.082Z,99.00
2022-11-20T22:46:39.449Z,99.00
2022-11-20T22:49:09.603Z,99.00
2022-11-20T22:51:39.558Z,99.00
2022-11-20T22:54:08.074Z,99.00
2022-11-20T22:56:36.030Z,99.10
2022-11-20T22:59:04.481Z,99.10
2022-11-20T23:01:33.787Z,99.20
2022-11-20T23:04:04.897Z,99.20
2022-11-20T23:06:34.345Z,99.20
2022-11-20T23:09:03.112Z,99.40
2022-11-20T23:11:32.662Z,99.40
2022-11-20T23:14:02.479Z,99.30
2022-11-20T23:16:32.607Z,99.30
2022-11-20T23:19:04.933Z,99.20
2022-11-20T23:21:33.340Z,99.20
2022-11-20T23:24:01.941Z,99.30
2022-11-20T23:26:31.485Z,99.30
2022-11-20T23:29:00.653Z,99.30
2022-11-20T23:31:31.024Z,99.10
2022-11-20T23:33:59.872Z,99.20
2022-11-20T23:36:29.287Z,99.10
2022-11-20T23:38:57.344Z,99.20
2022-11-20T23:41:25.405Z,99.20
2022-11-20T23:43:53.903Z,99.20
2022-11-20T23:46:22.086Z,99.50
2022-11-20T23:48:50.382Z,99.30
2022-11-20T23:51:18.488Z,99.60
2022-11-20T23:53:48.155Z,99.40
2022-11-20T23:56:16.164Z,99.20
2022-11-20T23:58:44.389Z,99.10
